LFBG/CNG METAR and TAF weather

Enter ICAO airport designator
Station Type Date Time Source
LFBG METAR 2019/10/23 02:30 UTC NOAA

LFBG 230230Z AUTO 04007KT 9999 -RA BKN023/// OVC074/// ///TCU 13/12 Q1009


Station Type Date Time Source
LFBG Decoded METAR 2019/10/23 02:30 UTC NOAA

Cognac, France (LFBG) 45-40N 000-19W 31M
Oct 22, 2019 - 10:30 PM EDT / 2019.10.23 0230 UTC
Wind: from the NE (040 degrees) at 8 MPH (7 KT):0
Visibility: greater than 7 mile(s):0
Sky conditions: overcast
Weather: light rain; Towering cumulus clouds observed
Temperature: 55 F (13 C)
Dew Point: 53 F (12 C)
Relative Humidity: 93%
Pressure (altimeter): 29.80 in. Hg (1009 hPa)
ob: LFBG 230230Z AUTO 04007KT 9999 -RA BKN023/// OVC074/// ///TCU 13/12 Q1009
cycle: 2

Station Type Date Time Source
LFBG TAF 2019/10/22 21:24 UTC NOAA

TAF TAF LFBG 222000Z 2221/2321 03010KT 9999 BKN045

Example: see airport list